createdAt,value
2019-04-27T00:04:30.089Z,11.30
2019-04-27T00:09:43.232Z,11.20
2019-04-27T00:14:43.880Z,11.20
2019-04-27T00:19:53.706Z,11.10
2019-04-27T00:24:56.150Z,11.10
2019-04-27T00:29:59.016Z,11.10
2019-04-27T00:35:03.515Z,11.00
2019-04-27T00:46:08.025Z,11.00
2019-04-27T00:51:10.676Z,11.00
2019-04-27T00:56:50.687Z,11.00
2019-04-27T01:07:53.760Z,11.10
2019-04-27T01:12:57.210Z,11.10
2019-04-27T01:18:11.647Z,11.20
2019-04-27T01:23:05.306Z,11.20
2019-04-27T01:33:46.528Z,11.20
2019-04-27T01:38:49.678Z,11.30
2019-04-27T01:43:53.124Z,11.30
2019-04-27T01:48:55.612Z,11.30
2019-04-27T01:53:59.386Z,11.40
2019-04-27T01:59:02.632Z,11.40
2019-04-27T02:04:19.418Z,11.30
2019-04-27T02:09:23.166Z,11.30
2019-04-27T02:14:28.673Z,11.40
2019-04-27T02:19:31.444Z,11.40
2019-04-27T02:24:34.097Z,11.40
2019-04-27T02:29:55.862Z,11.40
2019-04-27T02:35:03.828Z,11.20
2019-04-27T02:52:42.803Z,10.90
2019-04-27T02:57:46.688Z,10.90
2019-04-27T03:02:54.615Z,10.90
2019-04-27T03:07:59.381Z,10.90
2019-04-27T03:13:11.147Z,11.00
2019-04-27T03:18:41.891Z,11.00
2019-04-27T03:23:44.268Z,11.00
2019-04-27T03:28:46.781Z,11.00
2019-04-27T03:33:54.877Z,11.00
2019-04-27T03:38:54.284Z,11.00
2019-04-27T03:43:59.560Z,11.10
2019-04-27T03:49:03.372Z,11.00
2019-04-27T03:54:19.350Z,11.00
2019-04-27T03:59:32.488Z,10.90
2019-04-27T04:04:34.452Z,10.80
2019-04-27T04:09:40.930Z,10.90
2019-04-27T04:14:45.333Z,10.90
2019-04-27T04:19:57.171Z,10.90
2019-04-27T04:24:52.415Z,10.90
2019-04-27T04:29:54.995Z,10.90
2019-04-27T04:35:16.539Z,11.00
2019-04-27T04:40:23.861Z,11.10
2019-04-27T04:45:39.628Z,11.20
2019-04-27T04:50:42.229Z,11.20
2019-04-27T04:55:44.807Z,11.20
2019-04-27T05:00:47.355Z,11.20
2019-04-27T05:05:50.307Z,11.40
2019-04-27T05:10:53.323Z,11.60
2019-04-27T05:15:59.780Z,11.70
2019-04-27T05:21:21.545Z,11.80
2019-04-27T05:26:25.180Z,11.80
2019-04-27T05:31:29.231Z,11.80
2019-04-27T05:36:32.010Z,11.80
2019-04-27T05:41:37.597Z,12.00
2019-04-27T05:47:18.942Z,12.00
2019-04-27T05:52:29.431Z,12.10
2019-04-27T05:57:31.914Z,12.00
2019-04-27T06:02:35.111Z,12.10
2019-04-27T06:07:39.493Z,12.20
2019-04-27T06:12:43.923Z,12.30
2019-04-27T06:17:46.499Z,12.40
2019-04-27T06:22:49.246Z,12.50
2019-04-27T06:27:51.900Z,12.60
2019-04-27T06:32:54.425Z,12.60
2019-04-27T06:37:58.611Z,12.80
2019-04-27T06:43:01.366Z,12.90
2019-04-27T06:48:04.293Z,13.10
2019-04-27T06:53:08.615Z,13.30
2019-04-27T06:58:11.453Z,13.70
2019-04-27T07:03:13.910Z,14.00
2019-04-27T07:08:16.430Z,14.10
2019-04-27T07:13:19.577Z,14.20
2019-04-27T07:18:22.642Z,14.50
2019-04-27T07:23:25.277Z,14.80
2019-04-27T07:28:28.690Z,15.00
2019-04-27T07:33:31.247Z,15.10
2019-04-27T07:38:33.803Z,15.00
2019-04-27T07:43:44.034Z,15.00
2019-04-27T07:48:47.131Z,15.10
2019-04-27T07:53:49.571Z,15.40
2019-04-27T07:58:52.782Z,15.50
2019-04-27T08:03:56.524Z,15.50
2019-04-27T08:08:59.433Z,15.30
2019-04-27T08:14:03.205Z,15.10
2019-04-27T08:19:05.678Z,15.10
2019-04-27T08:24:09.284Z,15.60
2019-04-27T08:29:32.844Z,16.10
2019-04-27T08:34:35.937Z,16.70
2019-04-27T08:39:39.623Z,16.80
2019-04-27T08:44:43.381Z,17.00
2019-04-27T08:49:45.876Z,17.20
2019-04-27T08:54:49.283Z,17.40
2019-04-27T08:59:52.645Z,17.60
2019-04-27T09:04:55.082Z,17.70
2019-04-27T09:10:03.536Z,18.00
2019-04-27T09:15:13.441Z,17.90
2019-04-27T09:20:39.034Z,17.90
2019-04-27T09:25:42.802Z,18.10
2019-04-27T09:30:45.298Z,18.50
2019-04-27T09:35:47.807Z,18.50
2019-04-27T09:40:58.392Z,18.50
2019-04-27T09:46:02.279Z,18.80
2019-04-27T09:51:06.436Z,19.10
2019-04-27T09:56:09.042Z,19.20
2019-04-27T10:01:11.957Z,19.20
2019-04-27T10:06:16.210Z,19.30
2019-04-27T10:11:35.714Z,19.70
2019-04-27T10:16:38.905Z,20.30
2019-04-27T10:21:41.430Z,20.40
2019-04-27T10:26:44.087Z,20.80
2019-04-27T10:31:48.306Z,21.00
2019-04-27T10:36:50.929Z,20.70
2019-04-27T10:41:54.221Z,21.30
2019-04-27T10:46:57.062Z,21.60
2019-04-27T10:51:59.891Z,21.50
2019-04-27T10:57:02.514Z,20.80
2019-04-27T11:02:05.108Z,20.70
2019-04-27T11:07:10.104Z,21.40
2019-04-27T11:12:12.527Z,21.00
2019-04-27T11:17:16.417Z,20.00
2019-04-27T11:22:19.666Z,19.90
2019-04-27T11:27:22.043Z,20.20
2019-04-27T11:32:24.393Z,20.30
2019-04-27T11:37:30.340Z,20.40
2019-04-27T11:42:32.791Z,20.60
2019-04-27T11:47:36.530Z,20.50
2019-04-27T11:52:39.043Z,21.30
2019-04-27T11:57:41.788Z,21.60
2019-04-27T12:02:45.749Z,21.50
2019-04-27T12:07:48.784Z,21.20
2019-04-27T12:12:51.300Z,21.00
2019-04-27T12:17:53.774Z,20.60
2019-04-27T12:22:56.136Z,20.50
2019-04-27T12:28:25.573Z,20.20
2019-04-27T12:33:28.565Z,19.60
2019-04-27T12:38:31.171Z,18.90
2019-04-27T12:43:33.479Z,18.60
2019-04-27T12:48:37.532Z,18.30
2019-04-27T12:53:58.101Z,18.20
2019-04-27T12:59:36.548Z,18.80
2019-04-27T13:04:39.063Z,19.10
2019-04-27T13:09:42.334Z,19.00
2019-04-27T13:14:45.734Z,19.50
2019-04-27T13:19:48.509Z,19.70
2019-04-27T13:24:51.090Z,20.10
2019-04-27T13:29:53.478Z,20.20
2019-04-27T13:34:56.708Z,20.00
2019-04-27T13:40:07.204Z,19.80
2019-04-27T13:45:07.358Z,19.80
2019-04-27T13:50:24.729Z,19.50
2019-04-27T13:55:28.387Z,19.20
2019-04-27T14:00:30.727Z,18.90
2019-04-27T14:05:33.303Z,18.70
2019-04-27T14:10:35.835Z,18.50
2019-04-27T14:15:38.973Z,18.60
2019-04-27T14:20:41.623Z,18.60
2019-04-27T14:25:44.266Z,18.80
2019-04-27T14:30:48.705Z,18.70
2019-04-27T14:35:51.296Z,19.10
2019-04-27T14:40:55.099Z,19.90
2019-04-27T14:45:58.335Z,20.30
2019-04-27T14:51:01.563Z,20.10
2019-04-27T14:56:04.119Z,19.60
2019-04-27T15:01:08.214Z,18.90
2019-04-27T15:06:10.702Z,18.60
2019-04-27T15:11:15.553Z,19.10
2019-04-27T15:16:18.091Z,19.70
2019-04-27T15:21:20.451Z,19.70
2019-04-27T15:26:23.157Z,20.00
2019-04-27T15:31:29.643Z,20.90
2019-04-27T15:36:52.736Z,20.90
2019-04-27T15:42:03.261Z,21.60
2019-04-27T15:47:03.532Z,21.70
2019-04-27T15:52:06.768Z,21.10
2019-04-27T15:57:10.586Z,20.50
2019-04-27T16:02:15.538Z,20.00
2019-04-27T16:07:24.642Z,19.30
2019-04-27T16:12:21.999Z,18.60
2019-04-27T16:17:24.918Z,18.20
2019-04-27T16:22:27.805Z,18.10
2019-04-27T16:27:34.109Z,17.80
2019-04-27T16:32:34.602Z,17.60
2019-04-27T16:37:58.060Z,17.60
2019-04-27T16:43:02.002Z,17.40
2019-04-27T16:48:04.716Z,17.20
2019-04-27T16:53:12.266Z,17.00
2019-04-27T16:58:15.935Z,16.90
2019-04-27T17:03:18.069Z,17.40
2019-04-27T17:08:22.148Z,19.10
2019-04-27T17:13:28.014Z,19.50
2019-04-27T17:18:38.584Z,18.60
2019-04-27T17:23:41.123Z,18.10
2019-04-27T17:28:50.944Z,17.40
2019-04-27T17:34:00.504Z,16.90
2019-04-27T17:39:05.887Z,16.50
2019-04-27T17:44:08.621Z,16.10
2019-04-27T17:49:11.208Z,15.70
2019-04-27T17:54:13.615Z,15.60
2019-04-27T17:59:20.069Z,15.50
2019-04-27T18:04:20.314Z,14.20
2019-04-27T18:09:23.187Z,12.20
2019-04-27T18:14:26.368Z,11.20
2019-04-27T18:19:36.459Z,10.60
2019-04-27T18:24:44.467Z,10.20
2019-04-27T18:29:48.468Z,9.90
2019-04-27T18:34:51.666Z,9.60
2019-04-27T18:39:55.074Z,9.40
2019-04-27T18:45:06.230Z,9.40
2019-04-27T18:50:20.894Z,9.40
2019-04-27T18:55:33.807Z,9.20
2019-04-27T19:00:38.192Z,9.20
2019-04-27T19:05:41.137Z,9.30
2019-04-27T19:10:44.772Z,9.30
2019-04-27T19:15:47.531Z,9.30
2019-04-27T19:20:50.027Z,9.30
2019-04-27T19:26:20.553Z,9.30
2019-04-27T19:31:29.006Z,9.30
2019-04-27T19:36:31.950Z,9.30
2019-04-27T19:41:34.730Z,9.10
2019-04-27T19:46:37.325Z,8.90
2019-04-27T19:51:40.081Z,8.70
2019-04-27T19:56:42.574Z,8.60
2019-04-27T20:01:51.291Z,8.50
2019-04-27T20:06:53.813Z,8.40
2019-04-27T20:11:56.314Z,8.50
2019-04-27T20:16:58.804Z,8.40
2019-04-27T20:22:03.411Z,8.40
2019-04-27T20:27:05.960Z,8.30
2019-04-27T20:32:08.562Z,8.20
2019-04-27T20:37:11.895Z,8.20
2019-04-27T20:42:15.117Z,8.30
2019-04-27T20:47:19.967Z,8.40
2019-04-27T20:52:34.455Z,8.40
2019-04-27T20:57:36.909Z,8.30
2019-04-27T21:08:15.418Z,8.00
2019-04-27T21:13:17.925Z,7.80
2019-04-27T21:18:21.724Z,7.60
2019-04-27T21:23:24.515Z,7.40
2019-04-27T21:28:26.985Z,7.20
2019-04-27T21:33:29.509Z,6.90
2019-04-27T21:38:32.255Z,6.60
2019-04-27T21:43:34.692Z,6.40
2019-04-27T21:48:38.419Z,6.30
2019-04-27T21:54:04.454Z,6.40
2019-04-27T21:59:06.808Z,6.40
2019-04-27T22:04:11.267Z,6.50
2019-04-27T22:09:14.328Z,6.40
2019-04-27T22:14:18.734Z,6.30
2019-04-27T22:19:22.282Z,6.40
2019-04-27T22:24:34.236Z,6.40
2019-04-27T22:29:36.696Z,6.50
2019-04-27T22:34:39.112Z,6.50
2019-04-27T22:40:06.029Z,6.50
2019-04-27T22:45:19.343Z,6.70
2019-04-27T22:50:21.755Z,6.80
2019-04-27T22:55:25.040Z,6.80
2019-04-27T23:00:51.276Z,6.80
2019-04-27T23:05:54.477Z,6.90
2019-04-27T23:10:56.927Z,7.00
2019-04-27T23:16:01.582Z,7.10
2019-04-27T23:21:04.277Z,7.10
2019-04-27T23:26:06.663Z,7.40
2019-04-27T23:31:21.497Z,7.60
2019-04-27T23:36:23.903Z,7.70
2019-04-27T23:41:26.987Z,7.70
2019-04-27T23:46:29.439Z,7.80
2019-04-27T23:51:44.117Z,7.90
2019-04-27T23:56:46.555Z,7.80
